sensor_id;sensor_type;location;lat;lon;timestamp;P1;durP1;ratioP1;P2;durP2;ratioP2
63688;SDS011;54895;40.928;14.480;2023-07-09T00:02:04;19.55;;;10.48;;
63688;SDS011;54895;40.928;14.480;2023-07-09T00:04:30;21.23;;;10.95;;
63688;SDS011;54895;40.928;14.480;2023-07-09T00:07:00;16.75;;;9.55;;
63688;SDS011;54895;40.928;14.480;2023-07-09T00:09:28;16.80;;;8.98;;
63688;SDS011;54895;40.928;14.480;2023-07-09T00:11:55;18.48;;;9.25;;
63688;SDS011;54895;40.928;14.480;2023-07-09T00:14:22;15.27;;;9.40;;
63688;SDS011;54895;40.928;14.480;2023-07-09T00:16:48;17.23;;;8.95;;
63688;SDS011;54895;40.928;14.480;2023-07-09T00:19:16;15.02;;;9.52;;
63688;SDS011;54895;40.928;14.480;2023-07-09T00:21:45;16.33;;;8.80;;
63688;SDS011;54895;40.928;14.480;2023-07-09T00:24:14;17.02;;;9.20;;
63688;SDS011;54895;40.928;14.480;2023-07-09T00:26:40;16.83;;;9.73;;
63688;SDS011;54895;40.928;14.480;2023-07-09T00:29:10;24.55;;;9.82;;
63688;SDS011;54895;40.928;14.480;2023-07-09T00:31:37;21.48;;;9.75;;
63688;SDS011;54895;40.928;14.480;2023-07-09T00:34:09;23.42;;;10.00;;
63688;SDS011;54895;40.928;14.480;2023-07-09T00:36:41;16.30;;;9.25;;
63688;SDS011;54895;40.928;14.480;2023-07-09T00:39:19;18.77;;;9.98;;
63688;SDS011;54895;40.928;14.480;2023-07-09T00:41:46;18.70;;;9.48;;
63688;SDS011;54895;40.928;14.480;2023-07-09T00:49:26;15.63;;;9.30;;
63688;SDS011;54895;40.928;14.480;2023-07-09T00:51:57;14.70;;;9.13;;
63688;SDS011;54895;40.928;14.480;2023-07-09T00:54:37;15.88;;;9.45;;
63688;SDS011;54895;40.928;14.480;2023-07-09T00:57:10;17.88;;;9.30;;
63688;SDS011;54895;40.928;14.480;2023-07-09T00:59:43;13.23;;;9.32;;
63688;SDS011;54895;40.928;14.480;2023-07-09T01:02:13;17.15;;;10.23;;
63688;SDS011;54895;40.928;14.480;2023-07-09T01:04:41;17.80;;;10.40;;
63688;SDS011;54895;40.928;14.480;2023-07-09T01:07:08;18.85;;;10.40;;
63688;SDS011;54895;40.928;14.480;2023-07-09T01:09:34;15.43;;;9.95;;
63688;SDS011;54895;40.928;14.480;2023-07-09T01:12:07;17.63;;;9.47;;
63688;SDS011;54895;40.928;14.480;2023-07-09T01:14:36;16.90;;;10.25;;
63688;SDS011;54895;40.928;14.480;2023-07-09T01:17:05;15.73;;;9.18;;
63688;SDS011;54895;40.928;14.480;2023-07-09T01:19:38;14.95;;;9.02;;
63688;SDS011;54895;40.928;14.480;2023-07-09T01:22:14;13.35;;;9.43;;
63688;SDS011;54895;40.928;14.480;2023-07-09T01:27:14;12.43;;;8.95;;
63688;SDS011;54895;40.928;14.480;2023-07-09T01:29:42;14.43;;;8.43;;
63688;SDS011;54895;40.928;14.480;2023-07-09T01:32:10;13.90;;;8.70;;
63688;SDS011;54895;40.928;14.480;2023-07-09T01:34:37;13.38;;;8.48;;
63688;SDS011;54895;40.928;14.480;2023-07-09T01:37:05;13.68;;;8.52;;
63688;SDS011;54895;40.928;14.480;2023-07-09T01:39:32;15.80;;;8.80;;
63688;SDS011;54895;40.928;14.480;2023-07-09T01:41:58;16.30;;;8.77;;
63688;SDS011;54895;40.928;14.480;2023-07-09T01:44:25;13.80;;;8.45;;
63688;SDS011;54895;40.928;14.480;2023-07-09T01:46:55;12.02;;;8.05;;
63688;SDS011;54895;40.928;14.480;2023-07-09T01:49:21;16.42;;;8.35;;
63688;SDS011;54895;40.928;14.480;2023-07-09T01:51:47;11.48;;;8.00;;
63688;SDS011;54895;40.928;14.480;2023-07-09T01:54:16;10.35;;;7.93;;
63688;SDS011;54895;40.928;14.480;2023-07-09T01:56:42;12.80;;;7.90;;
63688;SDS011;54895;40.928;14.480;2023-07-09T01:59:09;13.00;;;8.57;;
63688;SDS011;54895;40.928;14.480;2023-07-09T02:01:37;15.68;;;8.30;;
63688;SDS011;54895;40.928;14.480;2023-07-09T02:04:04;12.55;;;8.75;;
63688;SDS011;54895;40.928;14.480;2023-07-09T02:06:31;11.02;;;8.18;;
63688;SDS011;54895;40.928;14.480;2023-07-09T02:08:58;14.50;;;9.23;;
63688;SDS011;54895;40.928;14.480;2023-07-09T02:11:24;15.82;;;9.20;;
63688;SDS011;54895;40.928;14.480;2023-07-09T02:13:51;16.35;;;9.27;;
63688;SDS011;54895;40.928;14.480;2023-07-09T02:16:17;14.07;;;9.70;;
63688;SDS011;54895;40.928;14.480;2023-07-09T02:18:44;14.32;;;9.25;;
63688;SDS011;54895;40.928;14.480;2023-07-09T02:21:10;15.93;;;9.30;;
63688;SDS011;54895;40.928;14.480;2023-07-09T02:23:38;12.65;;;8.90;;
63688;SDS011;54895;40.928;14.480;2023-07-09T02:26:05;12.85;;;8.63;;
63688;SDS011;54895;40.928;14.480;2023-07-09T02:28:31;11.45;;;8.50;;
63688;SDS011;54895;40.928;14.480;2023-07-09T02:30:57;17.95;;;8.82;;
63688;SDS011;54895;40.928;14.480;2023-07-09T02:33:25;11.88;;;8.68;;
63688;SDS011;54895;40.928;14.480;2023-07-09T02:35:51;11.98;;;8.50;;
63688;SDS011;54895;40.928;14.480;2023-07-09T02:38:17;15.48;;;9.85;;
63688;SDS011;54895;40.928;14.480;2023-07-09T02:40:44;13.93;;;9.20;;
63688;SDS011;54895;40.928;14.480;2023-07-09T02:43:11;16.00;;;9.80;;
63688;SDS011;54895;40.928;14.480;2023-07-09T02:45:38;14.65;;;9.93;;
63688;SDS011;54895;40.928;14.480;2023-07-09T02:48:05;14.23;;;9.35;;
63688;SDS011;54895;40.928;14.480;2023-07-09T02:50:37;14.83;;;9.23;;
63688;SDS011;54895;40.928;14.480;2023-07-09T02:53:03;13.05;;;9.20;;
63688;SDS011;54895;40.928;14.480;2023-07-09T02:55:30;15.60;;;9.50;;
63688;SDS011;54895;40.928;14.480;2023-07-09T02:57:56;14.27;;;9.75;;
63688;SDS011;54895;40.928;14.480;2023-07-09T03:00:23;20.27;;;10.18;;
63688;SDS011;54895;40.928;14.480;2023-07-09T03:02:49;14.75;;;10.20;;
63688;SDS011;54895;40.928;14.480;2023-07-09T03:05:16;15.30;;;10.02;;
63688;SDS011;54895;40.928;14.480;2023-07-09T03:07:42;13.55;;;9.75;;
63688;SDS011;54895;40.928;14.480;2023-07-09T03:10:09;13.32;;;9.30;;
63688;SDS011;54895;40.928;14.480;2023-07-09T03:12:35;17.92;;;10.52;;
63688;SDS011;54895;40.928;14.480;2023-07-09T03:15:02;14.95;;;10.65;;
63688;SDS011;54895;40.928;14.480;2023-07-09T03:17:28;15.50;;;9.45;;
63688;SDS011;54895;40.928;14.480;2023-07-09T03:19:55;16.10;;;9.45;;
63688;SDS011;54895;40.928;14.480;2023-07-09T03:22:21;18.83;;;10.10;;
63688;SDS011;54895;40.928;14.480;2023-07-09T03:24:48;14.85;;;9.35;;
63688;SDS011;54895;40.928;14.480;2023-07-09T03:27:14;15.23;;;9.25;;
63688;SDS011;54895;40.928;14.480;2023-07-09T03:29:41;16.42;;;8.70;;
63688;SDS011;54895;40.928;14.480;2023-07-09T03:32:07;18.20;;;9.65;;
63688;SDS011;54895;40.928;14.480;2023-07-09T03:34:34;14.70;;;10.02;;
63688;SDS011;54895;40.928;14.480;2023-07-09T03:37:00;18.67;;;9.60;;
63688;SDS011;54895;40.928;14.480;2023-07-09T03:39:26;18.10;;;9.65;;
63688;SDS011;54895;40.928;14.480;2023-07-09T03:41:53;17.67;;;9.98;;
63688;SDS011;54895;40.928;14.480;2023-07-09T03:44:19;16.58;;;9.93;;
63688;SDS011;54895;40.928;14.480;2023-07-09T03:46:46;14.73;;;9.40;;
63688;SDS011;54895;40.928;14.480;2023-07-09T03:49:12;13.85;;;10.43;;
63688;SDS011;54895;40.928;14.480;2023-07-09T03:51:38;17.02;;;11.20;;
63688;SDS011;54895;40.928;14.480;2023-07-09T03:54:05;17.90;;;10.57;;
63688;SDS011;54895;40.928;14.480;2023-07-09T03:56:35;18.95;;;11.38;;
63688;SDS011;54895;40.928;14.480;2023-07-09T03:59:03;15.73;;;10.35;;
63688;SDS011;54895;40.928;14.480;2023-07-09T04:01:29;14.65;;;10.68;;
63688;SDS011;54895;40.928;14.480;2023-07-09T04:03:56;15.75;;;10.30;;
63688;SDS011;54895;40.928;14.480;2023-07-09T04:06:23;15.23;;;10.73;;
63688;SDS011;54895;40.928;14.480;2023-07-09T04:08:49;17.00;;;10.90;;
63688;SDS011;54895;40.928;14.480;2023-07-09T04:11:16;14.07;;;10.60;;
63688;SDS011;54895;40.928;14.480;2023-07-09T04:13:42;15.45;;;10.57;;
63688;SDS011;54895;40.928;14.480;2023-07-09T04:16:09;16.08;;;10.70;;
63688;SDS011;54895;40.928;14.480;2023-07-09T04:18:36;15.20;;;10.48;;
63688;SDS011;54895;40.928;14.480;2023-07-09T04:21:03;13.30;;;8.93;;
63688;SDS011;54895;40.928;14.480;2023-07-09T04:23:29;15.20;;;9.63;;
63688;SDS011;54895;40.928;14.480;2023-07-09T04:25:56;15.25;;;9.95;;
63688;SDS011;54895;40.928;14.480;2023-07-09T04:28:23;20.58;;;13.27;;
63688;SDS011;54895;40.928;14.480;2023-07-09T04:30:50;34.00;;;20.42;;
63688;SDS011;54895;40.928;14.480;2023-07-09T04:33:18;47.40;;;26.30;;
63688;SDS011;54895;40.928;14.480;2023-07-09T04:35:46;33.40;;;21.20;;
63688;SDS011;54895;40.928;14.480;2023-07-09T04:38:13;38.22;;;22.63;;
63688;SDS011;54895;40.928;14.480;2023-07-09T04:40:40;33.08;;;17.45;;
63688;SDS011;54895;40.928;14.480;2023-07-09T04:43:07;21.02;;;13.45;;
63688;SDS011;54895;40.928;14.480;2023-07-09T04:45:33;15.13;;;10.20;;
63688;SDS011;54895;40.928;14.480;2023-07-09T04:48:00;12.10;;;8.57;;
63688;SDS011;54895;40.928;14.480;2023-07-09T04:50:27;14.82;;;8.00;;
63688;SDS011;54895;40.928;14.480;2023-07-09T04:52:53;14.95;;;8.18;;
63688;SDS011;54895;40.928;14.480;2023-07-09T04:55:19;12.95;;;7.88;;
63688;SDS011;54895;40.928;14.480;2023-07-09T04:57:46;12.82;;;8.07;;
63688;SDS011;54895;40.928;14.480;2023-07-09T05:00:13;11.75;;;7.65;;
63688;SDS011;54895;40.928;14.480;2023-07-09T05:02:39;10.88;;;7.43;;
63688;SDS011;54895;40.928;14.480;2023-07-09T05:05:06;10.07;;;7.13;;
63688;SDS011;54895;40.928;14.480;2023-07-09T05:07:33;9.52;;;7.28;;
63688;SDS011;54895;40.928;14.480;2023-07-09T05:09:59;12.23;;;7.28;;
63688;SDS011;54895;40.928;14.480;2023-07-09T05:12:26;12.00;;;6.18;;
63688;SDS011;54895;40.928;14.480;2023-07-09T05:14:54;10.93;;;6.38;;
63688;SDS011;54895;40.928;14.480;2023-07-09T05:17:22;10.88;;;6.28;;
63688;SDS011;54895;40.928;14.480;2023-07-09T05:19:50;14.02;;;6.90;;
63688;SDS011;54895;40.928;14.480;2023-07-09T05:22:17;17.40;;;7.40;;
63688;SDS011;54895;40.928;14.480;2023-07-09T05:24:43;11.25;;;7.47;;
63688;SDS011;54895;40.928;14.480;2023-07-09T05:27:10;13.02;;;8.38;;
63688;SDS011;54895;40.928;14.480;2023-07-09T05:29:36;14.50;;;9.20;;
63688;SDS011;54895;40.928;14.480;2023-07-09T05:32:03;12.70;;;7.85;;
63688;SDS011;54895;40.928;14.480;2023-07-09T05:34:30;15.75;;;7.47;;
63688;SDS011;54895;40.928;14.480;2023-07-09T05:36:56;14.02;;;7.07;;
63688;SDS011;54895;40.928;14.480;2023-07-09T05:39:22;12.35;;;6.95;;
63688;SDS011;54895;40.928;14.480;2023-07-09T05:41:49;12.52;;;6.78;;
63688;SDS011;54895;40.928;14.480;2023-07-09T05:44:15;9.93;;;6.47;;
63688;SDS011;54895;40.928;14.480;2023-07-09T05:46:42;11.15;;;6.20;;
63688;SDS011;54895;40.928;14.480;2023-07-09T05:49:08;11.40;;;5.90;;
63688;SDS011;54895;40.928;14.480;2023-07-09T05:51:36;9.23;;;6.20;;
63688;SDS011;54895;40.928;14.480;2023-07-09T05:54:02;9.65;;;5.72;;
63688;SDS011;54895;40.928;14.480;2023-07-09T05:56:31;10.70;;;5.82;;
63688;SDS011;54895;40.928;14.480;2023-07-09T05:58:57;9.52;;;5.45;;
63688;SDS011;54895;40.928;14.480;2023-07-09T06:01:24;11.65;;;5.75;;
63688;SDS011;54895;40.928;14.480;2023-07-09T06:03:52;13.90;;;5.65;;
63688;SDS011;54895;40.928;14.480;2023-07-09T06:06:19;12.32;;;6.25;;
63688;SDS011;54895;40.928;14.480;2023-07-09T06:08:46;13.60;;;6.18;;
63688;SDS011;54895;40.928;14.480;2023-07-09T06:11:12;8.40;;;5.45;;
63688;SDS011;54895;40.928;14.480;2023-07-09T06:13:39;12.07;;;5.90;;
63688;SDS011;54895;40.928;14.480;2023-07-09T06:16:05;10.98;;;5.90;;
63688;SDS011;54895;40.928;14.480;2023-07-09T06:18:32;8.15;;;5.50;;
63688;SDS011;54895;40.928;14.480;2023-07-09T06:21:00;10.25;;;5.68;;
63688;SDS011;54895;40.928;14.480;2023-07-09T06:23:28;8.40;;;5.60;;
63688;SDS011;54895;40.928;14.480;2023-07-09T06:25:55;10.18;;;5.65;;
63688;SDS011;54895;40.928;14.480;2023-07-09T06:28:23;11.73;;;5.75;;
63688;SDS011;54895;40.928;14.480;2023-07-09T06:30:50;9.25;;;5.45;;
63688;SDS011;54895;40.928;14.480;2023-07-09T06:33:18;13.55;;;6.20;;
63688;SDS011;54895;40.928;14.480;2023-07-09T06:35:52;11.60;;;5.82;;
63688;SDS011;54895;40.928;14.480;2023-07-09T06:38:19;9.82;;;5.60;;
63688;SDS011;54895;40.928;14.480;2023-07-09T06:40:47;11.38;;;5.63;;
63688;SDS011;54895;40.928;14.480;2023-07-09T06:43:14;9.07;;;5.93;;
63688;SDS011;54895;40.928;14.480;2023-07-09T06:45:53;10.30;;;5.70;;
63688;SDS011;54895;40.928;14.480;2023-07-09T06:48:22;10.43;;;6.25;;
63688;SDS011;54895;40.928;14.480;2023-07-09T06:50:49;13.05;;;5.95;;
63688;SDS011;54895;40.928;14.480;2023-07-09T06:53:16;12.25;;;6.63;;
63688;SDS011;54895;40.928;14.480;2023-07-09T06:55:42;16.05;;;6.10;;
63688;SDS011;54895;40.928;14.480;2023-07-09T06:58:11;10.27;;;5.70;;
63688;SDS011;54895;40.928;14.480;2023-07-09T07:00:38;14.38;;;5.97;;
63688;SDS011;54895;40.928;14.480;2023-07-09T07:03:05;13.55;;;6.13;;
63688;SDS011;54895;40.928;14.480;2023-07-09T07:05:32;9.27;;;5.05;;
63688;SDS011;54895;40.928;14.480;2023-07-09T07:08:00;8.25;;;4.85;;
63688;SDS011;54895;40.928;14.480;2023-07-09T07:10:27;11.55;;;5.43;;
63688;SDS011;54895;40.928;14.480;2023-07-09T07:12:54;8.07;;;4.75;;
63688;SDS011;54895;40.928;14.480;2023-07-09T07:15:20;8.95;;;4.53;;
63688;SDS011;54895;40.928;14.480;2023-07-09T07:17:47;5.88;;;4.32;;
63688;SDS011;54895;40.928;14.480;2023-07-09T07:20:14;6.70;;;3.97;;
63688;SDS011;54895;40.928;14.480;2023-07-09T07:22:41;7.97;;;4.43;;
63688;SDS011;54895;40.928;14.480;2023-07-09T07:25:08;7.38;;;4.40;;
63688;SDS011;54895;40.928;14.480;2023-07-09T07:27:35;7.75;;;4.43;;
63688;SDS011;54895;40.928;14.480;2023-07-09T07:30:03;7.15;;;4.05;;
63688;SDS011;54895;40.928;14.480;2023-07-09T07:32:30;10.00;;;4.53;;
63688;SDS011;54895;40.928;14.480;2023-07-09T07:34:57;11.73;;;3.78;;
63688;SDS011;54895;40.928;14.480;2023-07-09T07:37:23;10.45;;;3.97;;
63688;SDS011;54895;40.928;14.480;2023-07-09T07:39:49;9.73;;;4.30;;
63688;SDS011;54895;40.928;14.480;2023-07-09T07:42:16;7.90;;;3.90;;
63688;SDS011;54895;40.928;14.480;2023-07-09T07:44:43;9.18;;;4.20;;
63688;SDS011;54895;40.928;14.480;2023-07-09T07:47:09;9.85;;;4.10;;
63688;SDS011;54895;40.928;14.480;2023-07-09T07:49:37;8.65;;;4.18;;
63688;SDS011;54895;40.928;14.480;2023-07-09T07:52:04;5.85;;;3.50;;
63688;SDS011;54895;40.928;14.480;2023-07-09T07:54:31;7.28;;;4.07;;
63688;SDS011;54895;40.928;14.480;2023-07-09T07:56:58;7.88;;;4.20;;
63688;SDS011;54895;40.928;14.480;2023-07-09T07:59:25;10.02;;;4.22;;
63688;SDS011;54895;40.928;14.480;2023-07-09T08:01:51;7.75;;;4.15;;
63688;SDS011;54895;40.928;14.480;2023-07-09T08:04:18;6.65;;;4.28;;
63688;SDS011;54895;40.928;14.480;2023-07-09T08:06:44;7.20;;;3.80;;
63688;SDS011;54895;40.928;14.480;2023-07-09T08:09:11;6.35;;;3.65;;
63688;SDS011;54895;40.928;14.480;2023-07-09T08:11:38;7.65;;;3.75;;
63688;SDS011;54895;40.928;14.480;2023-07-09T08:14:04;6.70;;;3.45;;
63688;SDS011;54895;40.928;14.480;2023-07-09T08:16:32;6.25;;;3.95;;
63688;SDS011;54895;40.928;14.480;2023-07-09T08:18:58;7.05;;;3.90;;
63688;SDS011;54895;40.928;14.480;2023-07-09T08:21:25;7.85;;;3.47;;
63688;SDS011;54895;40.928;14.480;2023-07-09T08:23:51;6.30;;;3.67;;
63688;SDS011;54895;40.928;14.480;2023-07-09T08:26:17;7.30;;;3.55;;
63688;SDS011;54895;40.928;14.480;2023-07-09T08:28:44;8.80;;;3.90;;
63688;SDS011;54895;40.928;14.480;2023-07-09T08:31:10;8.95;;;3.45;;
63688;SDS011;54895;40.928;14.480;2023-07-09T08:33:36;7.07;;;3.92;;
63688;SDS011;54895;40.928;14.480;2023-07-09T08:36:03;7.32;;;3.78;;
63688;SDS011;54895;40.928;14.480;2023-07-09T08:38:29;8.52;;;3.55;;
63688;SDS011;54895;40.928;14.480;2023-07-09T08:41:07;7.93;;;3.78;;
63688;SDS011;54895;40.928;14.480;2023-07-09T08:43:50;6.28;;;3.67;;
63688;SDS011;54895;40.928;14.480;2023-07-09T08:49:00;6.53;;;3.67;;
63688;SDS011;54895;40.928;14.480;2023-07-09T08:51:32;5.47;;;3.67;;
63688;SDS011;54895;40.928;14.480;2023-07-09T08:54:03;9.98;;;3.47;;
63688;SDS011;54895;40.928;14.480;2023-07-09T08:56:31;5.82;;;3.90;;
63688;SDS011;54895;40.928;14.480;2023-07-09T08:59:00;6.30;;;4.07;;
63688;SDS011;54895;40.928;14.480;2023-07-09T09:01:29;6.22;;;3.38;;
63688;SDS011;54895;40.928;14.480;2023-07-09T09:04:02;8.77;;;3.70;;
63688;SDS011;54895;40.928;14.480;2023-07-09T09:06:32;6.73;;;3.80;;
63688;SDS011;54895;40.928;14.480;2023-07-09T09:14:35;7.20;;;4.07;;
63688;SDS011;54895;40.928;14.480;2023-07-09T09:17:09;6.75;;;4.30;;
63688;SDS011;54895;40.928;14.480;2023-07-09T09:20:22;7.32;;;4.22;;
63688;SDS011;54895;40.928;14.480;2023-07-09T09:22:33;8.95;;;4.10;;
63688;SDS011;54895;40.928;14.480;2023-07-09T09:27:41;10.38;;;4.32;;
63688;SDS011;54895;40.928;14.480;2023-07-09T09:30:15;12.75;;;4.68;;
63688;SDS011;54895;40.928;14.480;2023-07-09T09:35:33;6.70;;;3.90;;
63688;SDS011;54895;40.928;14.480;2023-07-09T09:38:01;9.07;;;4.40;;
63688;SDS011;54895;40.928;14.480;2023-07-09T09:40:29;9.48;;;3.97;;
63688;SDS011;54895;40.928;14.480;2023-07-09T09:43:01;9.75;;;3.95;;
63688;SDS011;54895;40.928;14.480;2023-07-09T09:45:35;6.72;;;3.65;;
63688;SDS011;54895;40.928;14.480;2023-07-09T09:48:10;5.32;;;4.05;;
63688;SDS011;54895;40.928;14.480;2023-07-09T09:50:40;7.80;;;4.28;;
63688;SDS011;54895;40.928;14.480;2023-07-09T09:53:08;8.30;;;4.05;;
63688;SDS011;54895;40.928;14.480;2023-07-09T09:55:37;8.85;;;3.85;;
63688;SDS011;54895;40.928;14.480;2023-07-09T09:58:11;8.32;;;4.10;;
63688;SDS011;54895;40.928;14.480;2023-07-09T10:00:46;8.38;;;4.10;;
63688;SDS011;54895;40.928;14.480;2023-07-09T10:03:14;8.13;;;4.43;;
63688;SDS011;54895;40.928;14.480;2023-07-09T10:05:59;6.45;;;4.20;;
63688;SDS011;54895;40.928;14.480;2023-07-09T10:11:22;8.32;;;4.18;;
63688;SDS011;54895;40.928;14.480;2023-07-09T10:14:04;9.73;;;4.13;;
63688;SDS011;54895;40.928;14.480;2023-07-09T10:16:44;6.00;;;3.15;;
63688;SDS011;54895;40.928;14.480;2023-07-09T10:19:25;4.85;;;3.58;;
63688;SDS011;54895;40.928;14.480;2023-07-09T10:25:16;8.00;;;3.15;;
63688;SDS011;54895;40.928;14.480;2023-07-09T10:35:38;6.18;;;2.97;;
63688;SDS011;54895;40.928;14.480;2023-07-09T10:38:58;4.57;;;2.10;;
63688;SDS011;54895;40.928;14.480;2023-07-09T10:41:14;5.15;;;2.88;;
63688;SDS011;54895;40.928;14.480;2023-07-09T10:46:29;7.90;;;3.40;;
63688;SDS011;54895;40.928;14.480;2023-07-09T10:48:59;5.78;;;2.90;;
63688;SDS011;54895;40.928;14.480;2023-07-09T10:51:42;5.25;;;2.63;;
63688;SDS011;54895;40.928;14.480;2023-07-09T10:56:56;6.10;;;3.03;;
63688;SDS011;54895;40.928;14.480;2023-07-09T10:59:28;6.20;;;3.15;;
63688;SDS011;54895;40.928;14.480;2023-07-09T11:04:57;5.07;;;3.00;;
63688;SDS011;54895;40.928;14.480;2023-07-09T11:07:27;4.88;;;2.63;;
63688;SDS011;54895;40.928;14.480;2023-07-09T11:10:24;5.28;;;2.95;;
63688;SDS011;54895;40.928;14.480;2023-07-09T11:17:57;6.10;;;2.97;;
63688;SDS011;54895;40.928;14.480;2023-07-09T11:20:27;4.70;;;2.88;;
63688;SDS011;54895;40.928;14.480;2023-07-09T11:23:17;4.20;;;2.80;;
63688;SDS011;54895;40.928;14.480;2023-07-09T11:25:46;7.25;;;3.10;;
63688;SDS011;54895;40.928;14.480;2023-07-09T11:28:14;4.32;;;2.60;;
63688;SDS011;54895;40.928;14.480;2023-07-09T11:33:17;4.47;;;2.17;;
63688;SDS011;54895;40.928;14.480;2023-07-09T11:35:47;5.93;;;2.50;;
63688;SDS011;54895;40.928;14.480;2023-07-09T11:38:20;4.95;;;2.20;;
63688;SDS011;54895;40.928;14.480;2023-07-09T11:40:50;4.80;;;2.72;;
63688;SDS011;54895;40.928;14.480;2023-07-09T11:43:32;4.28;;;2.50;;
63688;SDS011;54895;40.928;14.480;2023-07-09T11:46:23;4.55;;;2.03;;
63688;SDS011;54895;40.928;14.480;2023-07-09T11:48:53;4.67;;;2.67;;
63688;SDS011;54895;40.928;14.480;2023-07-09T11:51:21;5.03;;;2.63;;
63688;SDS011;54895;40.928;14.480;2023-07-09T11:56:58;5.28;;;2.30;;
63688;SDS011;54895;40.928;14.480;2023-07-09T11:59:27;5.65;;;2.40;;
63688;SDS011;54895;40.928;14.480;2023-07-09T12:01:53;5.82;;;2.20;;
63688;SDS011;54895;40.928;14.480;2023-07-09T12:04:22;4.38;;;2.25;;
63688;SDS011;54895;40.928;14.480;2023-07-09T12:06:56;5.93;;;2.60;;
63688;SDS011;54895;40.928;14.480;2023-07-09T12:09:23;4.22;;;2.35;;
63688;SDS011;54895;40.928;14.480;2023-07-09T12:11:50;3.42;;;2.40;;
63688;SDS011;54895;40.928;14.480;2023-07-09T12:14:20;3.65;;;2.20;;
63688;SDS011;54895;40.928;14.480;2023-07-09T12:16:48;3.72;;;2.13;;
63688;SDS011;54895;40.928;14.480;2023-07-09T12:19:18;4.95;;;2.20;;
63688;SDS011;54895;40.928;14.480;2023-07-09T12:21:46;3.92;;;2.53;;
63688;SDS011;54895;40.928;14.480;2023-07-09T12:29:28;4.57;;;2.25;;
63688;SDS011;54895;40.928;14.480;2023-07-09T12:31:59;5.35;;;2.47;;
63688;SDS011;54895;40.928;14.480;2023-07-09T12:34:32;3.03;;;2.38;;
63688;SDS011;54895;40.928;14.480;2023-07-09T12:36:58;5.38;;;2.50;;
63688;SDS011;54895;40.928;14.480;2023-07-09T12:39:26;2.80;;;2.33;;
63688;SDS011;54895;40.928;14.480;2023-07-09T12:41:55;4.18;;;2.45;;
63688;SDS011;54895;40.928;14.480;2023-07-09T12:44:23;3.58;;;2.38;;
63688;SDS011;54895;40.928;14.480;2023-07-09T12:46:50;4.80;;;1.98;;
63688;SDS011;54895;40.928;14.480;2023-07-09T12:49:26;4.63;;;1.90;;
63688;SDS011;54895;40.928;14.480;2023-07-09T12:52:00;4.85;;;2.28;;
63688;SDS011;54895;40.928;14.480;2023-07-09T12:56:00;3.05;;;1.70;;
63688;SDS011;54895;40.928;14.480;2023-07-09T12:58:31;2.58;;;1.60;;
63688;SDS011;54895;40.928;14.480;2023-07-09T13:01:06;5.50;;;2.13;;
63688;SDS011;54895;40.928;14.480;2023-07-09T13:03:38;5.88;;;2.15;;
63688;SDS011;54895;40.928;14.480;2023-07-09T13:06:06;3.03;;;2.22;;
63688;SDS011;54895;40.928;14.480;2023-07-09T13:08:54;4.95;;;2.30;;
63688;SDS011;54895;40.928;14.480;2023-07-09T13:11:22;4.85;;;2.63;;
63688;SDS011;54895;40.928;14.480;2023-07-09T13:14:24;3.45;;;1.60;;
63688;SDS011;54895;40.928;14.480;2023-07-09T13:16:46;4.78;;;2.10;;
63688;SDS011;54895;40.928;14.480;2023-07-09T13:19:13;5.05;;;1.80;;
63688;SDS011;54895;40.928;14.480;2023-07-09T13:21:40;4.70;;;2.28;;
63688;SDS011;54895;40.928;14.480;2023-07-09T13:24:12;5.53;;;2.35;;
63688;SDS011;54895;40.928;14.480;2023-07-09T13:26:41;3.08;;;2.30;;
63688;SDS011;54895;40.928;14.480;2023-07-09T13:29:14;4.18;;;2.33;;
63688;SDS011;54895;40.928;14.480;2023-07-09T13:31:43;3.80;;;2.05;;
63688;SDS011;54895;40.928;14.480;2023-07-09T13:34:17;3.58;;;2.42;;
63688;SDS011;54895;40.928;14.480;2023-07-09T13:36:44;4.90;;;2.45;;
63688;SDS011;54895;40.928;14.480;2023-07-09T13:39:10;3.58;;;2.00;;
63688;SDS011;54895;40.928;14.480;2023-07-09T13:41:38;4.63;;;2.50;;
63688;SDS011;54895;40.928;14.480;2023-07-09T13:44:10;4.15;;;2.00;;
63688;SDS011;54895;40.928;14.480;2023-07-09T13:46:38;4.22;;;2.50;;
63688;SDS011;54895;40.928;14.480;2023-07-09T13:49:09;3.20;;;2.22;;
63688;SDS011;54895;40.928;14.480;2023-07-09T13:51:45;4.63;;;1.98;;
63688;SDS011;54895;40.928;14.480;2023-07-09T13:57:18;3.25;;;1.55;;
63688;SDS011;54895;40.928;14.480;2023-07-09T13:59:48;3.50;;;1.92;;
63688;SDS011;54895;40.928;14.480;2023-07-09T14:02:25;3.67;;;1.75;;
63688;SDS011;54895;40.928;14.480;2023-07-09T14:04:58;3.88;;;2.38;;
63688;SDS011;54895;40.928;14.480;2023-07-09T14:07:27;3.72;;;2.20;;
63688;SDS011;54895;40.928;14.480;2023-07-09T14:09:55;3.20;;;1.60;;
63688;SDS011;54895;40.928;14.480;2023-07-09T14:12:22;3.40;;;2.08;;
63688;SDS011;54895;40.928;14.480;2023-07-09T14:14:49;3.90;;;2.35;;
63688;SDS011;54895;40.928;14.480;2023-07-09T14:17:17;3.83;;;2.35;;
63688;SDS011;54895;40.928;14.480;2023-07-09T14:19:43;5.30;;;2.10;;
63688;SDS011;54895;40.928;14.480;2023-07-09T14:24:59;6.50;;;2.13;;
63688;SDS011;54895;40.928;14.480;2023-07-09T14:27:26;4.47;;;1.83;;
63688;SDS011;54895;40.928;14.480;2023-07-09T14:29:53;5.82;;;2.13;;
63688;SDS011;54895;40.928;14.480;2023-07-09T14:32:41;4.88;;;2.15;;
63688;SDS011;54895;40.928;14.480;2023-07-09T14:35:17;3.88;;;2.30;;
63688;SDS011;54895;40.928;14.480;2023-07-09T14:37:45;3.90;;;2.08;;
63688;SDS011;54895;40.928;14.480;2023-07-09T14:40:13;3.03;;;1.90;;
63688;SDS011;54895;40.928;14.480;2023-07-09T14:42:41;3.90;;;1.90;;
63688;SDS011;54895;40.928;14.480;2023-07-09T14:45:25;3.60;;;1.90;;
63688;SDS011;54895;40.928;14.480;2023-07-09T14:47:54;3.55;;;1.90;;
63688;SDS011;54895;40.928;14.480;2023-07-09T14:50:22;3.92;;;2.10;;
63688;SDS011;54895;40.928;14.480;2023-07-09T14:56:44;2.83;;;1.90;;
63688;SDS011;54895;40.928;14.480;2023-07-09T14:59:11;3.47;;;1.58;;
63688;SDS011;54895;40.928;14.480;2023-07-09T15:01:37;3.22;;;2.08;;
63688;SDS011;54895;40.928;14.480;2023-07-09T15:04:21;4.57;;;2.30;;
63688;SDS011;54895;40.928;14.480;2023-07-09T15:06:52;4.45;;;2.08;;
63688;SDS011;54895;40.928;14.480;2023-07-09T15:09:22;3.58;;;1.60;;
63688;SDS011;54895;40.928;14.480;2023-07-09T15:11:57;4.60;;;2.20;;
63688;SDS011;54895;40.928;14.480;2023-07-09T15:14:25;3.83;;;2.05;;
63688;SDS011;54895;40.928;14.480;2023-07-09T15:16:52;4.63;;;2.03;;
63688;SDS011;54895;40.928;14.480;2023-07-09T15:19:20;3.42;;;1.85;;
63688;SDS011;54895;40.928;14.480;2023-07-09T15:21:48;2.95;;;1.85;;
63688;SDS011;54895;40.928;14.480;2023-07-09T15:24:20;5.05;;;2.00;;
63688;SDS011;54895;40.928;14.480;2023-07-09T15:26:52;3.53;;;1.60;;
63688;SDS011;54895;40.928;14.480;2023-07-09T15:29:19;3.25;;;2.00;;
63688;SDS011;54895;40.928;14.480;2023-07-09T15:31:46;4.75;;;2.00;;
63688;SDS011;54895;40.928;14.480;2023-07-09T15:34:13;2.70;;;1.73;;
63688;SDS011;54895;40.928;14.480;2023-07-09T15:36:45;4.20;;;2.28;;
63688;SDS011;54895;40.928;14.480;2023-07-09T15:39:18;3.58;;;2.10;;
63688;SDS011;54895;40.928;14.480;2023-07-09T15:41:46;4.23;;;1.90;;
63688;SDS011;54895;40.928;14.480;2023-07-09T15:44:13;3.33;;;2.10;;
63688;SDS011;54895;40.928;14.480;2023-07-09T15:46:42;7.35;;;2.15;;
63688;SDS011;54895;40.928;14.480;2023-07-09T15:49:15;3.90;;;1.95;;